createdAt,value
2023-02-26T00:01:42.028Z,3.50
2023-02-26T00:04:10.782Z,3.60
2023-02-26T00:06:40.105Z,3.80
2023-02-26T00:09:08.564Z,3.70
2023-02-26T00:11:37.496Z,3.60
2023-02-26T00:14:06.508Z,3.50
2023-02-26T00:16:36.526Z,3.70
2023-02-26T00:19:05.582Z,3.50
2023-02-26T00:21:35.283Z,3.70
2023-02-26T00:24:03.617Z,3.50
2023-02-26T00:26:32.509Z,3.30
2023-02-26T00:29:01.343Z,3.50
2023-02-26T00:31:30.320Z,3.60
2023-02-26T00:33:58.853Z,3.60
2023-02-26T00:36:42.904Z,3.20
2023-02-26T00:39:11.334Z,3.00
2023-02-26T00:41:39.854Z,3.30
2023-02-26T00:44:08.358Z,3.00
2023-02-26T00:46:48.436Z,3.20
2023-02-26T00:49:16.670Z,3.60
2023-02-26T00:51:49.686Z,3.40
2023-02-26T00:54:24.950Z,3.50
2023-02-26T00:56:53.638Z,3.40
2023-02-26T00:59:22.217Z,3.40
2023-02-26T01:01:50.616Z,4.10
2023-02-26T01:04:20.109Z,3.40
2023-02-26T01:06:49.478Z,3.10
2023-02-26T01:09:25.803Z,3.20
2023-02-26T01:11:55.344Z,3.20
2023-02-26T01:14:23.949Z,3.30
2023-02-26T01:16:55.474Z,2.90
2023-02-26T01:19:23.680Z,3.00
2023-02-26T01:21:54.490Z,2.70
2023-02-26T01:24:22.779Z,2.70
2023-02-26T01:26:51.281Z,2.70
2023-02-26T01:29:19.640Z,2.70
2023-02-26T01:31:50.914Z,2.50
2023-02-26T01:34:42.251Z,3.20
2023-02-26T01:37:18.017Z,2.70
2023-02-26T01:42:18.261Z,2.90
2023-02-26T01:44:58.717Z,3.20
2023-02-26T01:47:27.410Z,3.30
2023-02-26T01:49:55.586Z,2.80
2023-02-26T01:52:32.919Z,2.40
2023-02-26T01:55:02.407Z,2.80
2023-02-26T01:57:31.050Z,2.70
2023-02-26T01:59:59.322Z,2.80
2023-02-26T02:02:27.600Z,2.20
2023-02-26T02:04:55.933Z,2.10
2023-02-26T02:07:24.596Z,2.70
2023-02-26T02:09:54.048Z,2.80
2023-02-26T02:12:31.404Z,2.40
2023-02-26T02:15:04.840Z,2.60
2023-02-26T02:17:42.263Z,2.60
2023-02-26T02:20:12.315Z,2.30
2023-02-26T02:23:00.174Z,2.80
2023-02-26T02:25:28.285Z,2.50
2023-02-26T02:28:14.347Z,2.10
2023-02-26T02:31:02.452Z,2.10
2023-02-26T02:33:31.862Z,2.50
2023-02-26T02:36:01.719Z,2.50
2023-02-26T02:38:35.410Z,2.50
2023-02-26T02:41:13.201Z,2.50
2023-02-26T02:43:41.321Z,2.50
2023-02-26T02:46:10.707Z,2.90
2023-02-26T02:48:39.925Z,2.80
2023-02-26T02:51:12.710Z,2.30
2023-02-26T02:53:44.549Z,2.80
2023-02-26T02:56:24.763Z,2.40
2023-02-26T02:58:59.106Z,2.60
2023-02-26T03:01:27.959Z,2.60
2023-02-26T03:04:09.490Z,2.30
2023-02-26T03:06:38.551Z,2.20
2023-02-26T03:09:07.292Z,2.40
2023-02-26T03:11:37.504Z,2.50
2023-02-26T03:14:06.371Z,2.60
2023-02-26T03:16:49.655Z,2.10
2023-02-26T03:19:18.632Z,2.40
2023-02-26T03:21:54.429Z,2.30
2023-02-26T03:24:49.286Z,2.40
2023-02-26T03:27:21.589Z,2.60
2023-02-26T03:29:57.727Z,2.60
2023-02-26T03:32:38.063Z,3.10
2023-02-26T03:35:16.685Z,2.70
2023-02-26T03:37:46.124Z,2.40
2023-02-26T03:40:17.369Z,2.90
2023-02-26T03:42:54.093Z,3.00
2023-02-26T03:45:26.911Z,2.70
2023-02-26T03:47:55.705Z,3.50
2023-02-26T03:50:44.800Z,3.10
2023-02-26T03:53:35.042Z,3.30
2023-02-26T03:56:18.165Z,3.30
2023-02-26T03:59:05.174Z,3.40
2023-02-26T04:03:28.583Z,3.20
2023-02-26T04:05:57.160Z,3.20
2023-02-26T04:08:25.971Z,3.10
2023-02-26T04:10:58.892Z,3.10
2023-02-26T04:13:28.533Z,2.90
2023-02-26T04:15:56.694Z,2.90
2023-02-26T04:18:25.055Z,3.00
2023-02-26T04:20:53.560Z,3.50
2023-02-26T04:23:21.792Z,3.30
2023-02-26T04:25:50.399Z,3.60
2023-02-26T04:28:19.365Z,3.50
2023-02-26T04:30:48.759Z,2.90
2023-02-26T04:33:18.078Z,2.70
2023-02-26T04:35:46.299Z,3.10
2023-02-26T04:38:15.146Z,2.90
2023-02-26T04:40:43.321Z,3.20
2023-02-26T04:43:12.699Z,2.70
2023-02-26T04:45:48.065Z,2.60
2023-02-26T04:48:17.412Z,2.70
2023-02-26T04:50:48.320Z,3.10
2023-02-26T04:53:16.800Z,2.40
2023-02-26T04:55:45.019Z,3.00
2023-02-26T04:58:15.696Z,3.20
2023-02-26T05:00:47.800Z,2.80
2023-02-26T05:03:16.672Z,3.10
2023-02-26T05:05:46.460Z,2.80
2023-02-26T05:08:14.952Z,2.80
2023-02-26T05:10:43.672Z,2.90
2023-02-26T05:13:12.384Z,3.40
2023-02-26T05:15:40.674Z,3.40
2023-02-26T05:18:08.901Z,2.60
2023-02-26T05:20:37.460Z,3.10
2023-02-26T05:23:06.302Z,3.10
2023-02-26T05:25:35.381Z,2.90
2023-02-26T05:28:04.424Z,3.10
2023-02-26T05:30:32.936Z,3.20
2023-02-26T05:33:01.353Z,3.30
2023-02-26T05:35:29.629Z,3.10
2023-02-26T05:37:57.738Z,3.20
2023-02-26T05:40:25.917Z,3.60
2023-02-26T05:42:54.219Z,3.00
2023-02-26T05:45:22.319Z,3.50
2023-02-26T05:47:50.496Z,3.40
2023-02-26T05:50:19.272Z,3.50
2023-02-26T05:52:47.707Z,3.50
2023-02-26T05:55:17.633Z,3.10
2023-02-26T05:57:46.067Z,3.70
2023-02-26T06:00:14.408Z,3.10
2023-02-26T06:02:42.853Z,3.80
2023-02-26T06:05:11.535Z,3.50
2023-02-26T06:07:41.213Z,3.50
2023-02-26T06:10:09.727Z,3.60
2023-02-26T06:12:40.936Z,3.20
2023-02-26T06:15:09.763Z,3.10
2023-02-26T06:17:40.777Z,3.10
2023-02-26T06:20:10.478Z,3.30
2023-02-26T06:22:39.423Z,3.10
2023-02-26T06:25:07.790Z,3.50
2023-02-26T06:27:36.605Z,3.70
2023-02-26T06:30:05.421Z,3.70
2023-02-26T06:32:34.070Z,3.80
2023-02-26T06:35:03.121Z,4.00
2023-02-26T06:37:33.913Z,3.90
2023-02-26T06:40:02.343Z,4.00
2023-02-26T06:42:32.266Z,4.20
2023-02-26T06:45:00.655Z,4.40
2023-02-26T06:47:29.207Z,4.40
2023-02-26T06:49:57.329Z,3.80
2023-02-26T06:52:25.804Z,3.60
2023-02-26T06:54:54.604Z,4.20
2023-02-26T06:57:23.139Z,4.50
2023-02-26T06:59:52.196Z,4.30
2023-02-26T07:02:20.908Z,4.60
2023-02-26T07:04:49.151Z,4.00
2023-02-26T07:07:17.587Z,4.10
2023-02-26T07:09:46.221Z,4.50
2023-02-26T07:12:15.156Z,4.20
2023-02-26T07:14:45.160Z,4.50
2023-02-26T07:17:20.964Z,4.40
2023-02-26T07:19:49.582Z,5.00
2023-02-26T07:22:19.779Z,4.80
2023-02-26T07:24:49.741Z,4.90
2023-02-26T07:27:18.019Z,4.40
2023-02-26T07:29:52.647Z,4.80
2023-02-26T07:32:20.858Z,4.50
2023-02-26T07:34:49.127Z,4.70
2023-02-26T07:37:17.227Z,4.80
2023-02-26T07:39:45.477Z,4.80
2023-02-26T07:42:14.580Z,4.70
2023-02-26T07:44:43.914Z,4.20
2023-02-26T07:47:12.267Z,5.10
2023-02-26T07:49:40.529Z,5.40
2023-02-26T07:52:15.018Z,5.00
2023-02-26T07:54:45.588Z,4.80
2023-02-26T07:57:13.745Z,5.10
2023-02-26T07:59:41.979Z,5.10
2023-02-26T08:02:10.487Z,4.70
2023-02-26T08:04:39.289Z,4.40
2023-02-26T08:07:07.807Z,4.00
2023-02-26T08:09:36.254Z,4.90
2023-02-26T08:12:04.450Z,4.60
2023-02-26T08:14:32.589Z,4.50
2023-02-26T08:17:00.984Z,4.80
2023-02-26T08:19:29.321Z,4.00
2023-02-26T08:21:57.781Z,5.00
2023-02-26T08:24:25.911Z,4.20
2023-02-26T08:26:54.466Z,5.00
2023-02-26T08:29:22.710Z,3.90
2023-02-26T08:31:56.059Z,4.20
2023-02-26T08:34:24.763Z,4.70
2023-02-26T08:36:52.886Z,4.80
2023-02-26T08:39:21.218Z,4.10
2023-02-26T08:41:49.467Z,4.80
2023-02-26T08:44:17.569Z,4.80
2023-02-26T08:46:45.799Z,4.70
2023-02-26T08:49:13.969Z,4.60
2023-02-26T08:51:42.091Z,3.90
2023-02-26T08:54:14.093Z,4.50
2023-02-26T08:56:42.700Z,4.60
2023-02-26T08:59:13.180Z,4.60
2023-02-26T09:01:41.546Z,4.40
2023-02-26T09:04:09.895Z,4.00
2023-02-26T09:06:38.015Z,4.00
2023-02-26T09:09:07.880Z,4.20
2023-02-26T09:11:36.996Z,4.10
2023-02-26T09:14:05.406Z,4.00
2023-02-26T09:16:37.690Z,3.50
2023-02-26T09:19:06.632Z,3.30
2023-02-26T09:21:35.982Z,3.70
2023-02-26T09:24:04.317Z,3.20
2023-02-26T09:26:32.616Z,3.20
2023-02-26T09:29:01.410Z,3.40
2023-02-26T09:31:30.169Z,3.30
2023-02-26T09:33:59.087Z,3.90
2023-02-26T09:36:28.307Z,3.30
2023-02-26T09:38:56.641Z,3.50
2023-02-26T09:41:28.925Z,3.50
2023-02-26T09:44:00.422Z,3.80
2023-02-26T09:46:33.336Z,3.20
2023-02-26T09:49:16.975Z,3.00
2023-02-26T09:51:45.941Z,3.40
2023-02-26T09:54:18.585Z,3.60
2023-02-26T09:56:46.842Z,3.60
2023-02-26T09:59:15.162Z,3.70
2023-02-26T10:01:44.105Z,3.50
2023-02-26T10:04:38.982Z,3.30
2023-02-26T10:07:16.962Z,3.90
2023-02-26T10:10:04.868Z,3.20
2023-02-26T10:12:34.424Z,3.60
2023-02-26T10:15:05.882Z,3.90
2023-02-26T10:17:41.049Z,3.70
2023-02-26T10:20:15.910Z,3.90
2023-02-26T10:23:16.418Z,3.30
2023-02-26T10:25:46.891Z,3.60
2023-02-26T10:28:15.052Z,3.60
2023-02-26T10:31:05.139Z,3.60
2023-02-26T10:33:36.477Z,3.20
2023-02-26T10:36:25.135Z,3.40
2023-02-26T10:38:55.283Z,3.50
2023-02-26T10:41:25.639Z,3.70
2023-02-26T10:44:06.010Z,3.60
2023-02-26T10:46:44.040Z,3.40
2023-02-26T10:49:24.886Z,3.50
2023-02-26T10:51:55.219Z,3.30
2023-02-26T10:54:44.288Z,3.40
2023-02-26T10:57:21.158Z,3.80
2023-02-26T10:59:50.383Z,3.90
2023-02-26T11:02:32.799Z,3.10
2023-02-26T11:05:07.516Z,3.30
2023-02-26T11:07:36.883Z,3.50
2023-02-26T11:10:06.235Z,3.20
2023-02-26T11:12:35.030Z,3.60
2023-02-26T11:15:03.560Z,3.20
2023-02-26T11:17:32.913Z,3.50
2023-02-26T11:20:02.143Z,3.20
2023-02-26T11:22:32.776Z,3.30
2023-02-26T11:25:01.103Z,3.10
2023-02-26T11:27:34.932Z,3.50
2023-02-26T11:30:06.098Z,3.30
2023-02-26T11:32:35.385Z,3.20
2023-02-26T11:35:03.963Z,3.00
2023-02-26T11:37:36.644Z,3.20
2023-02-26T11:40:10.614Z,2.90
2023-02-26T11:42:44.113Z,3.30
2023-02-26T11:45:14.260Z,3.20
2023-02-26T11:47:43.155Z,3.20
2023-02-26T11:50:15.545Z,3.20
2023-02-26T11:52:45.481Z,3.00
2023-02-26T11:55:21.568Z,3.20
2023-02-26T11:57:56.295Z,2.90
2023-02-26T12:00:25.195Z,2.90
2023-02-26T12:02:57.263Z,2.90
2023-02-26T12:05:26.145Z,3.10
2023-02-26T12:07:56.582Z,2.80
2023-02-26T12:10:26.541Z,3.20
2023-02-26T12:13:12.456Z,3.10
2023-02-26T12:15:53.241Z,2.60
2023-02-26T12:18:21.778Z,3.00
2023-02-26T12:20:49.841Z,2.70
2023-02-26T12:23:20.911Z,2.80
2023-02-26T12:25:58.734Z,2.60
2023-02-26T12:28:45.422Z,3.10
2023-02-26T12:31:32.747Z,3.00
2023-02-26T12:34:04.254Z,3.00
2023-02-26T12:36:49.746Z,2.80
2023-02-26T12:39:18.043Z,2.90
2023-02-26T12:41:56.022Z,3.20
2023-02-26T12:44:31.908Z,3.00
2023-02-26T12:47:03.407Z,3.30
2023-02-26T12:49:50.903Z,3.40
2023-02-26T12:52:37.599Z,3.10
2023-02-26T12:55:18.810Z,3.30
2023-02-26T12:57:56.722Z,3.20
2023-02-26T13:00:31.320Z,3.30
2023-02-26T13:02:59.490Z,3.60
2023-02-26T13:05:40.236Z,4.00
2023-02-26T13:08:14.655Z,3.60
2023-02-26T13:10:45.736Z,3.10
2023-02-26T13:13:26.287Z,3.10
2023-02-26T13:16:00.545Z,3.20
2023-02-26T13:18:31.973Z,3.60
2023-02-26T13:21:01.774Z,4.00
2023-02-26T13:23:53.103Z,3.90
2023-02-26T13:26:22.658Z,3.50
2023-02-26T13:28:53.292Z,3.60
2023-02-26T13:31:29.566Z,3.20
2023-02-26T13:33:59.016Z,3.10
2023-02-26T13:36:27.350Z,2.80
2023-02-26T13:39:05.273Z,3.50
2023-02-26T13:41:40.697Z,3.00
2023-02-26T13:44:12.463Z,3.40
2023-02-26T13:46:52.588Z,3.50
2023-02-26T13:49:27.355Z,3.00
2023-02-26T13:51:55.748Z,3.20
2023-02-26T13:54:34.473Z,3.60
2023-02-26T13:57:07.102Z,3.00
2023-02-26T13:59:44.448Z,3.30
2023-02-26T14:02:18.566Z,3.50
2023-02-26T14:04:53.182Z,3.30
2023-02-26T14:07:40.385Z,3.50
2023-02-26T14:10:24.028Z,3.10
2023-02-26T14:13:13.185Z,2.90
2023-02-26T14:15:43.598Z,2.90
2023-02-26T14:18:26.317Z,2.50
2023-02-26T14:20:58.943Z,2.60
2023-02-26T14:23:33.303Z,2.50
2023-02-26T14:26:05.444Z,2.90
2023-02-26T14:28:35.196Z,3.00
2023-02-26T14:31:03.638Z,2.70
2023-02-26T14:33:32.367Z,2.90
2023-02-26T14:36:00.688Z,2.60
2023-02-26T14:38:31.041Z,3.10
2023-02-26T14:41:06.655Z,2.80
2023-02-26T14:43:42.479Z,3.20
2023-02-26T14:46:10.743Z,4.10
2023-02-26T14:48:39.088Z,4.50
2023-02-26T14:51:12.147Z,4.30
2023-02-26T14:53:43.371Z,3.70
2023-02-26T14:56:17.701Z,3.80
2023-02-26T14:58:48.062Z,4.50
2023-02-26T15:01:21.625Z,3.50
2023-02-26T15:03:57.143Z,3.80
2023-02-26T15:06:25.264Z,4.00
2023-02-26T15:09:15.940Z,4.00
2023-02-26T15:12:13.103Z,4.40
2023-02-26T15:14:51.815Z,8.10
2023-02-26T15:17:39.854Z,9.80
2023-02-26T15:20:18.482Z,10.10
2023-02-26T15:23:07.367Z,8.00
2023-02-26T15:25:36.823Z,18.80
2023-02-26T15:28:09.986Z,13.20
2023-02-26T15:30:38.343Z,9.30
2023-02-26T15:33:10.714Z,6.90
2023-02-26T15:35:39.739Z,4.90
2023-02-26T15:38:09.101Z,4.50
2023-02-26T15:40:38.369Z,4.20
2023-02-26T15:43:08.060Z,3.30
2023-02-26T15:45:41.522Z,3.70
2023-02-26T15:48:37.708Z,3.90
2023-02-26T15:51:06.946Z,4.10
2023-02-26T15:53:35.073Z,3.60
2023-02-26T15:56:07.137Z,3.30
2023-02-26T15:58:40.381Z,3.70
2023-02-26T16:01:10.042Z,3.20
2023-02-26T16:03:38.764Z,3.60
2023-02-26T16:06:07.157Z,3.10
2023-02-26T16:08:39.611Z,3.40
2023-02-26T16:11:07.866Z,3.80
2023-02-26T16:13:37.969Z,3.50
2023-02-26T16:16:10.016Z,3.70
2023-02-26T16:19:46.017Z,3.70
2023-02-26T16:22:14.196Z,4.20
2023-02-26T16:24:42.477Z,3.80
2023-02-26T16:27:11.600Z,3.50
2023-02-26T16:29:43.306Z,4.00
2023-02-26T16:32:11.537Z,4.50
2023-02-26T16:34:44.409Z,5.20
2023-02-26T16:37:22.092Z,5.20
2023-02-26T16:39:57.563Z,5.10
2023-02-26T16:42:34.061Z,8.30
2023-02-26T16:45:04.179Z,11.60
2023-02-26T16:47:33.250Z,10.30
2023-02-26T16:50:01.596Z,7.80
2023-02-26T16:52:30.010Z,7.00
2023-02-26T16:55:03.305Z,7.60
2023-02-26T16:57:35.120Z,6.80
2023-02-26T17:00:07.239Z,6.20
2023-02-26T17:02:36.390Z,6.50
2023-02-26T17:05:14.773Z,6.60
2023-02-26T17:07:47.332Z,6.90
2023-02-26T17:10:24.364Z,6.90
2023-02-26T17:12:53.463Z,7.60
2023-02-26T17:15:32.311Z,8.20
2023-02-26T17:18:02.105Z,8.00
2023-02-26T17:20:30.994Z,7.40
2023-02-26T17:23:00.117Z,8.80
2023-02-26T17:25:30.090Z,9.10
2023-02-26T17:27:58.658Z,10.70
2023-02-26T17:30:30.157Z,10.40
2023-02-26T17:33:00.247Z,10.50
2023-02-26T17:35:29.476Z,10.30
2023-02-26T17:37:58.228Z,10.00
2023-02-26T17:40:31.940Z,8.90
2023-02-26T17:43:00.987Z,8.40
2023-02-26T17:45:29.330Z,9.30
2023-02-26T17:47:58.675Z,9.50
2023-02-26T17:50:30.372Z,8.80
2023-02-26T17:52:59.332Z,8.80
2023-02-26T17:55:27.598Z,8.50
2023-02-26T17:57:56.575Z,8.60
2023-02-26T18:00:25.636Z,9.20
2023-02-26T18:02:53.832Z,8.50
2023-02-26T18:05:21.984Z,9.40
2023-02-26T18:07:50.366Z,9.10
2023-02-26T18:10:23.828Z,8.60
2023-02-26T18:12:54.121Z,8.60
2023-02-26T18:15:22.422Z,8.10
2023-02-26T18:17:50.487Z,8.70
2023-02-26T18:20:19.746Z,8.40
2023-02-26T18:22:48.517Z,8.30
2023-02-26T18:25:37.258Z,8.80
2023-02-26T18:28:06.163Z,8.20
2023-02-26T18:30:36.500Z,8.20
2023-02-26T18:33:04.785Z,7.60
2023-02-26T18:35:34.358Z,8.30
2023-02-26T18:38:03.065Z,7.40
2023-02-26T18:40:31.898Z,8.90
2023-02-26T18:43:00.169Z,9.80
2023-02-26T18:45:28.492Z,9.00
2023-02-26T18:47:57.056Z,8.20
2023-02-26T18:50:25.184Z,9.10
2023-02-26T18:52:53.429Z,7.90
2023-02-26T18:55:21.964Z,8.50
2023-02-26T18:57:50.027Z,9.10
2023-02-26T19:00:18.742Z,7.80
2023-02-26T19:02:47.837Z,7.70
2023-02-26T19:05:16.746Z,7.60
2023-02-26T19:07:49.091Z,8.90
2023-02-26T19:10:17.703Z,8.00
2023-02-26T19:12:46.081Z,9.00
2023-02-26T19:15:15.001Z,8.90
2023-02-26T19:17:43.382Z,8.30
2023-02-26T19:20:16.071Z,9.40
2023-02-26T19:22:48.775Z,8.80
2023-02-26T19:25:24.284Z,9.10
2023-02-26T19:27:53.778Z,8.90
2023-02-26T19:30:26.767Z,9.30
2023-02-26T19:32:55.606Z,9.40
2023-02-26T19:35:27.165Z,9.40
2023-02-26T19:37:56.033Z,9.80
2023-02-26T19:40:24.730Z,9.10
2023-02-26T19:42:53.026Z,8.10
2023-02-26T19:45:21.339Z,8.30
2023-02-26T19:47:49.469Z,8.60
2023-02-26T19:50:19.430Z,9.30
2023-02-26T19:52:47.577Z,8.70
2023-02-26T19:55:15.757Z,8.50
2023-02-26T19:57:43.979Z,8.80
2023-02-26T20:00:13.656Z,8.80
2023-02-26T20:02:41.829Z,9.10
2023-02-26T20:05:16.111Z,8.00
2023-02-26T20:07:45.120Z,8.80
2023-02-26T20:10:15.167Z,7.80
2023-02-26T20:12:44.918Z,9.30
2023-02-26T20:15:13.127Z,7.70
2023-02-26T20:17:41.248Z,8.40
2023-02-26T20:20:09.827Z,9.30
2023-02-26T20:22:40.468Z,7.90
2023-02-26T20:25:09.410Z,8.20
2023-02-26T20:27:37.685Z,8.10
2023-02-26T20:30:06.169Z,8.60
2023-02-26T20:32:34.812Z,8.60
2023-02-26T20:35:03.595Z,8.70
2023-02-26T20:37:32.258Z,9.50
2023-02-26T20:40:00.366Z,9.10
2023-02-26T20:42:28.901Z,9.00
2023-02-26T20:45:01.986Z,8.70
2023-02-26T20:47:30.826Z,9.30
2023-02-26T20:49:59.132Z,8.40
2023-02-26T20:52:27.689Z,8.60
2023-02-26T20:54:56.122Z,8.20
2023-02-26T20:57:24.299Z,8.00
2023-02-26T20:59:52.425Z,8.70
2023-02-26T21:02:21.384Z,7.70
2023-02-26T21:04:49.934Z,7.80
2023-02-26T21:07:22.080Z,7.50
2023-02-26T21:09:52.369Z,7.00
2023-02-26T21:12:20.755Z,7.70
2023-02-26T21:14:52.750Z,7.70
2023-02-26T21:17:21.122Z,7.30
2023-02-26T21:19:54.652Z,6.30
2023-02-26T21:22:23.748Z,6.80
2023-02-26T21:24:51.968Z,7.30
2023-02-26T21:27:20.881Z,7.20
2023-02-26T21:29:49.160Z,6.40
2023-02-26T21:32:17.289Z,7.10
2023-02-26T21:34:46.144Z,6.20
2023-02-26T21:37:15.581Z,6.50
2023-02-26T21:39:44.053Z,6.90
2023-02-26T21:42:13.036Z,6.20
2023-02-26T21:44:41.766Z,6.20
2023-02-26T21:47:10.401Z,6.30
2023-02-26T21:49:39.066Z,6.00
2023-02-26T21:52:09.608Z,6.00
2023-02-26T21:54:39.198Z,6.30
2023-02-26T21:57:07.705Z,5.90
2023-02-26T21:59:38.500Z,6.00
2023-02-26T22:02:06.740Z,5.70
2023-02-26T22:04:35.109Z,6.20
2023-02-26T22:07:03.667Z,5.60
2023-02-26T22:09:31.960Z,6.30
2023-02-26T22:12:00.839Z,5.70
2023-02-26T22:14:29.212Z,6.50
2023-02-26T22:16:57.672Z,6.10
2023-02-26T22:19:27.492Z,6.80
2023-02-26T22:21:55.949Z,6.40
2023-02-26T22:24:24.689Z,6.50
2023-02-26T22:26:52.976Z,5.90
2023-02-26T22:29:22.909Z,6.10
2023-02-26T22:31:53.450Z,5.70
2023-02-26T22:34:21.903Z,6.10
2023-02-26T22:36:51.924Z,5.80
2023-02-26T22:39:20.461Z,5.10
2023-02-26T22:41:48.864Z,5.00
2023-02-26T22:44:17.206Z,5.50
2023-02-26T22:46:47.540Z,4.70
2023-02-26T22:49:15.779Z,4.70
2023-02-26T22:51:43.908Z,4.80
2023-02-26T22:54:12.928Z,4.60
2023-02-26T22:56:44.273Z,4.80
2023-02-26T22:59:12.564Z,4.50
2023-02-26T23:01:41.116Z,4.40
2023-02-26T23:04:10.864Z,4.10
2023-02-26T23:06:38.994Z,4.70
2023-02-26T23:09:08.470Z,4.00
2023-02-26T23:11:37.409Z,3.80
2023-02-26T23:14:05.810Z,4.20
2023-02-26T23:16:47.178Z,4.50
2023-02-26T23:19:15.860Z,4.00
2023-02-26T23:21:44.786Z,4.10
2023-02-26T23:24:12.941Z,3.70
2023-02-26T23:26:41.079Z,3.80
2023-02-26T23:29:09.232Z,3.90
2023-02-26T23:31:38.240Z,4.20
2023-02-26T23:34:07.601Z,3.50
2023-02-26T23:36:37.443Z,3.80
2023-02-26T23:39:06.756Z,3.70
2023-02-26T23:41:35.155Z,4.20
2023-02-26T23:44:04.146Z,3.80
2023-02-26T23:46:32.387Z,3.70
2023-02-26T23:49:02.265Z,3.90
2023-02-26T23:51:31.724Z,3.90
2023-02-26T23:53:59.948Z,4.20
2023-02-26T23:56:29.021Z,3.90
2023-02-26T23:58:57.424Z,4.10
